Time;durP1;ratioP1;P1;durP2;ratioP2;P2;SDS_P1;SDS_P2;PMS_P1;PMS_P2;Temp;Humidity;BMP_temperature;BMP_pressure;BME280_temperature;BME280_humidity;BME280_pressure;Samples;Min_cycle;Max_cycle;Signal;HPM_P1;HPM_P2
2023/07/18 00:00:57;;;;;;;3.90;2.97;;;21.80;63.00;;;;;;5015286;28;20049;-77
2023/07/18 00:03:23;;;;;;;3.55;3.10;;;21.70;62.90;;;;;;5015495;28;20526;-76
2023/07/18 00:05:49;;;;;;;3.58;3.00;;;21.70;62.90;;;;;;5014863;28;20084;-77
2023/07/18 00:08:14;;;;;;;3.55;3.08;;;21.70;62.20;;;;;;5016140;28;20092;-77
2023/07/18 00:10:40;;;;;;;3.13;2.83;;;21.70;62.00;;;;;;5015020;28;20092;-77
2023/07/18 00:13:07;;;;;;;3.03;2.50;;;21.70;61.90;;;;;;5015161;28;20026;-77
2023/07/18 00:15:33;;;;;;;2.67;2.47;;;21.80;62.00;;;;;;5013764;28;20044;-77
2023/07/18 00:18:01;;;;;;;2.70;2.50;;;21.80;62.00;;;;;;5016804;28;20475;-77
2023/07/18 00:20:27;;;;;;;2.40;2.20;;;21.80;62.20;;;;;;5015839;28;20029;-76
2023/07/18 00:22:53;;;;;;;2.28;2.08;;;21.80;62.10;;;;;;5017088;28;20064;-77
2023/07/18 00:25:20;;;;;;;2.45;2.25;;;21.80;62.20;;;;;;5021610;28;20057;-76
2023/07/18 00:27:47;;;;;;;2.58;2.38;;;21.80;62.30;;;;;;5015973;28;20052;-76
2023/07/18 00:30:13;;;;;;;2.22;1.95;;;21.70;62.50;;;;;;5016362;28;20487;-76
2023/07/18 00:32:42;;;;;;;2.85;2.58;;;21.70;62.70;;;;;;5016707;28;20030;-76
2023/07/18 00:35:08;;;;;;;2.25;2.05;;;21.60;62.70;;;;;;5021537;28;20493;-75
2023/07/18 00:37:34;;;;;;;2.20;2.00;;;21.60;62.70;;;;;;5021871;28;20093;-74
2023/07/18 00:40:00;;;;;;;1.65;1.55;;;21.60;62.90;;;;;;5015005;28;20053;-76
2023/07/18 00:42:26;;;;;;;2.00;1.90;;;21.60;63.00;;;;;;5014104;28;20022;-77
2023/07/18 00:44:51;;;;;;;2.83;2.10;;;21.60;62.80;;;;;;5015482;28;20505;-76
2023/07/18 00:47:18;;;;;;;2.30;1.75;;;21.70;62.60;;;;;;5014757;28;20034;-76
2023/07/18 00:49:48;;;;;;;2.55;2.05;;;21.70;62.50;;;;;;5014705;28;20419;-77
2023/07/18 00:52:14;;;;;;;2.40;2.20;;;21.60;61.90;;;;;;5015605;28;20026;-77
2023/07/18 00:54:41;;;;;;;2.67;2.38;;;21.60;61.80;;;;;;5022388;28;20018;-77
2023/07/18 00:57:07;;;;;;;2.20;2.00;;;21.60;61.80;;;;;;5017380;28;20020;-77
2023/07/18 00:59:34;;;;;;;1.48;1.42;;;21.60;61.80;;;;;;5015945;28;20104;-77
2023/07/18 01:01:59;;;;;;;1.98;1.80;;;21.60;61.80;;;;;;5015309;28;20025;-77
2023/07/18 01:04:25;;;;;;;1.80;1.70;;;21.60;61.60;;;;;;5017814;28;20026;-76
2023/07/18 01:06:52;;;;;;;1.90;1.80;;;21.60;61.50;;;;;;5024466;28;20524;-75
2023/07/18 01:09:19;;;;;;;1.83;1.73;;;21.50;61.30;;;;;;5035761;28;20370;-75
2023/07/18 01:11:44;;;;;;;1.80;1.70;;;21.60;61.40;;;;;;5033543;28;20365;-76
2023/07/18 01:14:10;;;;;;;1.75;1.65;;;21.60;61.40;;;;;;5035471;28;20155;-75
2023/07/18 01:16:36;;;;;;;1.85;1.73;;;21.60;61.10;;;;;;5019646;28;20026;-76
2023/07/18 01:19:01;;;;;;;2.08;1.80;;;21.50;61.00;;;;;;5019687;28;20094;-76
2023/07/18 01:21:27;;;;;;;1.88;1.77;;;21.50;61.20;;;;;;5026236;28;20030;-76
2023/07/18 01:23:53;;;;;;;1.80;1.70;;;21.30;61.40;;;;;;5030167;28;20458;-76
2023/07/18 01:26:19;;;;;;;1.50;1.40;;;21.20;61.60;;;;;;5022675;28;20040;-75
2023/07/18 01:28:44;;;;;;;1.73;1.48;;;21.10;61.90;;;;;;5017988;28;20030;-76
2023/07/18 01:31:10;;;;;;;1.85;1.60;;;21.00;62.10;;;;;;5016618;28;20383;-74
2023/07/18 01:33:36;;;;;;;1.67;1.50;;;21.00;62.50;;;;;;5014788;28;20119;-76
2023/07/18 01:36:02;;;;;;;1.40;1.30;;;20.90;62.70;;;;;;5021537;28;20101;-76
2023/07/18 01:38:31;;;;;;;1.20;1.10;;;20.80;63.10;;;;;;5018719;28;20112;-77
2023/07/18 01:40:57;;;;;;;1.48;1.38;;;20.80;63.60;;;;;;5014986;28;20045;-76
2023/07/18 01:43:23;;;;;;;1.27;1.17;;;20.70;63.90;;;;;;5014881;28;20116;-77
2023/07/18 01:45:49;;;;;;;1.30;1.25;;;20.70;64.20;;;;;;5015730;28;20489;-76
2023/07/18 01:48:14;;;;;;;1.00;1.00;;;20.60;64.40;;;;;;5014502;28;20032;-77
2023/07/18 01:50:41;;;;;;;1.38;1.27;;;20.50;64.50;;;;;;5014466;28;20101;-76
2023/07/18 01:53:08;;;;;;;0.98;0.98;;;20.50;64.70;;;;;;5014273;28;20034;-76
2023/07/18 01:55:33;;;;;;;1.15;1.05;;;20.50;64.90;;;;;;5014555;28;20026;-77
2023/07/18 01:57:59;;;;;;;1.05;1.05;;;20.50;65.50;;;;;;5013958;28;20033;-76
2023/07/18 02:00:25;;;;;;;1.00;1.00;;;20.40;65.80;;;;;;5014190;28;20029;-76
2023/07/18 02:02:52;;;;;;;0.73;0.73;;;20.40;66.00;;;;;;5014055;28;20029;-76
2023/07/18 02:05:21;;;;;;;1.00;1.00;;;20.30;66.20;;;;;;5016429;28;20077;-76
2023/07/18 02:07:47;;;;;;;1.45;1.35;;;20.30;66.50;;;;;;5014908;28;20026;-76
2023/07/18 02:10:15;;;;;;;0.57;0.57;;;20.20;66.50;;;;;;5014403;28;20077;-76
2023/07/18 02:12:40;;;;;;;1.05;1.02;;;20.20;66.70;;;;;;5013890;28;20026;-76
2023/07/18 02:15:07;;;;;;;1.10;1.00;;;20.20;66.90;;;;;;5017927;28;20100;-77
2023/07/18 02:17:35;;;;;;;1.40;1.30;;;20.20;67.30;;;;;;5033530;28;20060;-77
2023/07/18 02:20:06;;;;;;;1.60;1.50;;;20.10;67.80;;;;;;5034509;28;20528;-77
2023/07/18 02:22:35;;;;;;;1.65;1.55;;;20.10;68.10;;;;;;5035023;28;20022;-77
2023/07/18 02:25:02;;;;;;;1.10;1.10;;;20.10;68.20;;;;;;5030473;28;20030;-76
2023/07/18 02:27:28;;;;;;;2.08;1.45;;;20.10;68.50;;;;;;5021664;28;20021;-76
2023/07/18 02:29:54;;;;;;;1.52;1.42;;;20.20;68.70;;;;;;5036887;28;20034;-77
2023/07/18 02:32:21;;;;;;;1.65;1.55;;;20.20;68.70;;;;;;5028200;28;20026;-76
2023/07/18 02:34:47;;;;;;;1.30;1.20;;;20.30;69.00;;;;;;5016832;28;20448;-76
2023/07/18 02:37:13;;;;;;;1.42;1.33;;;20.30;69.30;;;;;;5014669;28;20049;-76
2023/07/18 02:39:39;;;;;;;1.20;1.20;;;20.30;69.60;;;;;;5018471;28;20049;-75
2023/07/18 02:42:06;;;;;;;0.90;0.90;;;20.20;70.00;;;;;;5014550;28;20528;-75
2023/07/18 02:44:32;;;;;;;1.00;1.00;;;20.20;70.60;;;;;;5016594;28;20112;-75
2023/07/18 02:46:58;;;;;;;0.80;0.80;;;20.10;70.70;;;;;;5022577;28;20038;-76
2023/07/18 02:49:24;;;;;;;0.90;0.90;;;20.20;70.80;;;;;;5017133;28;20034;-76
2023/07/18 02:51:49;;;;;;;1.33;1.23;;;20.20;70.40;;;;;;5017034;28;20021;-75
2023/07/18 02:54:15;;;;;;;0.95;0.95;;;20.20;70.10;;;;;;5017394;28;20132;-76
2023/07/18 02:56:41;;;;;;;1.20;1.10;;;20.20;70.00;;;;;;5019606;28;20099;-76
2023/07/18 02:59:06;;;;;;;1.10;1.10;;;20.10;70.10;;;;;;5017584;28;20037;-76
2023/07/18 03:01:34;;;;;;;1.02;1.00;;;20.00;70.50;;;;;;5017360;28;20021;-76
2023/07/18 03:04:00;;;;;;;1.10;1.10;;;20.00;70.40;;;;;;5021327;28;20018;-76
2023/07/18 03:06:27;;;;;;;1.20;1.10;;;19.90;70.30;;;;;;5024634;28;20033;-76
2023/07/18 03:08:53;;;;;;;1.23;1.20;;;19.90;70.40;;;;;;5019864;28;20057;-76
2023/07/18 03:11:19;;;;;;;1.23;1.17;;;19.80;70.30;;;;;;5024447;28;20033;-76
2023/07/18 03:13:45;;;;;;;0.98;0.98;;;19.80;70.50;;;;;;5031319;28;20034;-75
2023/07/18 03:16:10;;;;;;;0.88;0.88;;;19.70;70.90;;;;;;5032359;28;20482;-76
2023/07/18 03:18:36;;;;;;;1.10;1.10;;;19.80;71.90;;;;;;5027965;28;20025;-76
2023/07/18 03:21:03;;;;;;;1.00;1.00;;;19.70;72.40;;;;;;5018826;28;20033;-76
2023/07/18 03:23:29;;;;;;;0.90;0.90;;;19.70;72.10;;;;;;5017397;28;20059;-76
2023/07/18 03:25:55;;;;;;;1.13;1.10;;;19.70;72.10;;;;;;5018164;28;20030;-76
2023/07/18 03:28:21;;;;;;;0.80;0.80;;;19.70;72.20;;;;;;5018343;28;20030;-76
2023/07/18 03:30:47;;;;;;;0.90;0.90;;;19.70;72.60;;;;;;5016808;28;20096;-77
2023/07/18 03:33:12;;;;;;;0.95;0.95;;;19.60;72.90;;;;;;5017641;28;20052;-76
2023/07/18 03:35:38;;;;;;;0.93;0.90;;;19.60;73.30;;;;;;5016186;28;20025;-76
2023/07/18 03:38:04;;;;;;;0.90;0.90;;;19.50;73.50;;;;;;5036037;28;20032;-76
2023/07/18 03:40:30;;;;;;;0.80;0.80;;;19.50;73.60;;;;;;5033235;28;20022;-76
2023/07/18 03:42:56;;;;;;;0.95;0.95;;;19.50;73.90;;;;;;5025637;28;20501;-76
2023/07/18 03:45:21;;;;;;;0.80;0.77;;;19.50;74.10;;;;;;5016239;28;20026;-75
2023/07/18 03:47:49;;;;;;;0.98;0.98;;;19.60;74.50;;;;;;5029247;28;20076;-74
2023/07/18 03:50:18;;;;;;;1.00;1.00;;;19.60;75.30;;;;;;5033669;28;20421;-75
2023/07/18 03:52:44;;;;;;;1.25;1.15;;;19.60;74.70;;;;;;5024129;28;20028;-74
2023/07/18 03:55:10;;;;;;;1.15;1.05;;;19.60;74.40;;;;;;5013985;28;20014;-76
2023/07/18 03:57:36;;;;;;;1.00;1.00;;;19.60;74.40;;;;;;5014052;28;20013;-76
2023/07/18 04:00:13;;;;;;;1.00;1.00;;;19.60;74.40;;;;;;5014292;28;20030;-75
2023/07/18 04:02:40;;;;;;;1.08;1.08;;;19.60;74.30;;;;;;5015267;28;20042;-75
2023/07/18 04:05:06;;;;;;;0.95;0.95;;;19.60;74.40;;;;;;5014505;28;20458;-75
2023/07/18 04:07:32;;;;;;;1.00;1.00;;;19.60;74.50;;;;;;5013927;28;20017;-75
2023/07/18 04:09:58;;;;;;;0.80;0.80;;;19.70;74.80;;;;;;5013752;28;20026;-75
2023/07/18 04:12:23;;;;;;;0.90;0.90;;;19.70;75.30;;;;;;5014220;28;20030;-75
2023/07/18 04:14:50;;;;;;;0.90;0.90;;;19.80;75.50;;;;;;5014800;28;20029;-75
2023/07/18 04:17:16;;;;;;;1.08;0.98;;;19.80;75.60;;;;;;5013412;28;20026;-75
2023/07/18 04:19:42;;;;;;;1.05;1.00;;;19.80;75.60;;;;;;5012503;28;20034;-75
2023/07/18 04:22:08;;;;;;;0.80;0.80;;;;;;;;;;5021632;28;20037;-75
2023/07/18 04:24:34;;;;;;;0.90;0.90;;;19.80;75.80;;;;;;5019328;28;20049;-75
2023/07/18 04:26:59;;;;;;;0.73;0.73;;;19.80;76.60;;;;;;5020869;28;20033;-74
2023/07/18 04:29:25;;;;;;;1.10;1.00;;;19.90;76.70;;;;;;5013396;28;20442;-74
2023/07/18 04:31:51;;;;;;;1.02;1.02;;;19.90;76.90;;;;;;5033659;28;20026;-74
2023/07/18 04:34:17;;;;;;;1.15;1.15;;;20.00;76.80;;;;;;5031905;28;20033;-76
2023/07/18 04:36:43;;;;;;;0.82;0.82;;;20.00;76.80;;;;;;5027050;28;20030;-75
2023/07/18 04:39:09;;;;;;;1.38;1.33;;;20.00;76.60;;;;;;5024230;28;20032;-75
2023/07/18 04:41:35;;;;;;;1.40;1.30;;;19.90;76.80;;;;;;5032226;28;20025;-75
2023/07/18 04:44:01;;;;;;;1.92;1.30;;;20.00;77.10;;;;;;5015087;28;20062;-74
2023/07/18 04:46:27;;;;;;;1.80;1.55;;;20.00;77.50;;;;;;5016169;28;20091;-76
2023/07/18 04:48:53;;;;;;;1.88;1.77;;;19.90;77.80;;;;;;5024996;28;20026;-74
2023/07/18 04:51:18;;;;;;;1.67;1.58;;;20.00;78.10;;;;;;5032465;28;20034;-76
2023/07/18 04:53:44;;;;;;;2.10;1.90;;;20.00;77.50;;;;;;5017629;28;20072;-77
2023/07/18 04:56:10;;;;;;;2.83;2.17;;;20.10;77.40;;;;;;5014395;28;20121;-76
2023/07/18 04:58:35;;;;;;;2.20;2.00;;;20.10;77.30;;;;;;5025017;28;20083;-75
2023/07/18 05:01:02;;;;;;;2.30;2.10;;;20.20;77.30;;;;;;5032689;28;20569;-75
2023/07/18 05:03:28;;;;;;;2.85;2.33;;;20.20;77.50;;;;;;5023505;28;20205;-76
2023/07/18 05:05:56;;;;;;;2.53;2.28;;;20.30;77.10;;;;;;5017430;28;20466;-75
2023/07/18 05:08:22;;;;;;;2.78;2.47;;;20.30;77.10;;;;;;5016958;28;20034;-75
2023/07/18 05:10:47;;;;;;;3.28;2.97;;;20.40;76.60;;;;;;5019384;28;20033;-74
2023/07/18 05:13:13;;;;;;;3.20;2.80;;;20.40;75.90;;;;;;5031433;28;20083;-74
2023/07/18 05:15:42;;;;;;;3.15;2.47;;;20.50;76.00;;;;;;5019810;28;20305;-75
2023/07/18 05:18:07;;;;;;;2.65;2.42;;;21.10;76.10;;;;;;5031798;28;20058;-75
2023/07/18 05:20:33;;;;;;;1.85;1.75;;;23.10;72.90;;;;;;5030250;28;20041;-76
2023/07/18 05:22:59;;;;;;;2.45;2.25;;;24.90;66.80;;;;;;5013023;28;20033;-76
2023/07/18 05:25:25;;;;;;;2.25;2.08;;;26.20;62.50;;;;;;5017363;28;20037;-76
2023/07/18 05:27:51;;;;;;;1.98;1.88;;;27.50;58.80;;;;;;5009073;28;20030;-76
2023/07/18 05:30:18;;;;;;;2.00;1.90;;;28.60;55.20;;;;;;5010494;28;20443;-75
2023/07/18 05:32:45;;;;;;;2.53;2.33;;;29.20;53.10;;;;;;5012921;28;20095;-76
2023/07/18 05:35:13;;;;;;;2.45;2.25;;;29.30;51.30;;;;;;5012108;28;20022;-75
2023/07/18 05:37:40;;;;;;;3.05;2.05;;;28.40;52.00;;;;;;5013276;28;20117;-76
2023/07/18 05:40:09;;;;;;;2.08;1.98;;;28.40;53.10;;;;;;5026167;28;20030;-75
2023/07/18 05:42:39;;;;;;;2.35;2.15;;;29.10;52.50;;;;;;5019125;28;20340;-74
2023/07/18 05:45:07;;;;;;;2.10;1.90;;;30.20;50.60;;;;;;5016046;28;20037;-76
2023/07/18 05:47:34;;;;;;;2.20;2.00;;;31.10;48.70;;;;;;5012461;28;20029;-76
2023/07/18 05:50:00;;;;;;;2.42;2.22;;;31.70;46.70;;;;;;5011668;28;20033;-75
2023/07/18 05:52:25;;;;;;;2.35;2.20;;;31.80;45.70;;;;;;5011183;28;20569;-76
2023/07/18 05:54:51;;;;;;;2.28;2.08;;;32.20;45.60;;;;;;5013000;28;20034;-76
2023/07/18 05:57:17;;;;;;;2.30;2.08;;;32.60;44.50;;;;;;5012682;28;20033;-75
2023/07/18 05:59:42;;;;;;;2.45;2.25;;;32.80;43.70;;;;;;5018388;28;20075;-76
2023/07/18 06:02:08;;;;;;;2.30;2.17;;;33.00;43.20;;;;;;5018654;28;20026;-75
2023/07/18 06:04:36;;;;;;;3.22;2.35;;;33.00;42.60;;;;;;5016957;28;20499;-75
2023/07/18 06:07:02;;;;;;;3.97;2.90;;;32.70;42.60;;;;;;5018475;28;20041;-75
2023/07/18 06:09:27;;;;;;;2.80;2.60;;;32.60;42.60;;;;;;5019634;28;20018;-77
2023/07/18 06:11:53;;;;;;;2.60;2.40;;;32.60;42.90;;;;;;5018670;28;20021;-75
2023/07/18 06:14:19;;;;;;;2.35;2.15;;;;;;;;;;5018059;28;20025;-75
2023/07/18 06:16:46;;;;;;;2.38;2.22;;;;;;;;;;5035624;28;20029;-76
2023/07/18 06:19:12;;;;;;;2.65;2.45;;;;;;;;;;5024730;28;20088;-75
2023/07/18 06:21:39;;;;;;;2.15;2.05;;;;;;;;;;5018295;28;20018;-76
2023/07/18 06:24:05;;;;;;;2.30;2.20;;;34.00;40.00;;;;;;5018543;28;20112;-78
2023/07/18 06:26:31;;;;;;;2.10;2.00;;;34.10;40.70;;;;;;5024061;28;20030;-76
2023/07/18 06:28:57;;;;;;;2.05;1.95;;;34.20;40.00;;;;;;5019112;28;20028;-76
2023/07/18 06:31:23;;;;;;;1.80;1.70;;;34.10;39.90;;;;;;5017614;28;20022;-79
2023/07/18 06:33:49;;;;;;;2.00;1.90;;;34.40;39.90;;;;;;5020610;28;20034;-75
2023/07/18 06:36:15;;;;;;;1.98;1.88;;;35.00;39.70;;;;;;5020252;28;20117;-75
2023/07/18 06:38:42;;;;;;;1.80;1.70;;;35.30;39.20;;;;;;5032693;28;20030;-76
2023/07/18 06:41:08;;;;;;;3.80;2.65;;;35.60;38.50;;;;;;5041826;28;20025;-76
2023/07/18 06:43:33;;;;;;;2.97;2.47;;;35.30;38.50;;;;;;5039986;28;20037;-77
2023/07/18 06:46:00;;;;;;;3.22;2.72;;;34.90;39.10;;;;;;5039343;28;20025;-77
2023/07/18 06:48:26;;;;;;;3.25;2.90;;;34.70;39.20;;;;;;5029470;28;20507;-75
2023/07/18 06:50:53;;;;;;;3.25;2.97;;;34.50;39.60;;;;;;5025836;28;20021;-75
2023/07/18 06:53:21;;;;;;;2.92;2.63;;;34.70;40.60;;;;;;5041025;28;20051;-75
2023/07/18 06:55:48;;;;;;;4.72;2.83;;;34.80;39.30;;;;;;5025695;28;20471;-76
2023/07/18 06:58:15;;;;;;;2.70;2.50;;;34.50;38.50;;;;;;5026581;28;20378;-77
2023/07/18 07:00:41;;;;;;;3.00;2.78;;;34.30;38.40;;;;;;5021053;28;20518;-76
2023/07/18 07:03:08;;;;;;;2.00;1.90;;;34.70;37.90;;;;;;5020753;28;20026;-77
2023/07/18 07:05:42;;;;;;;2.15;2.05;;;35.00;37.50;;;;;;5020115;28;20518;-76
2023/07/18 07:08:12;;;;;;;2.00;1.90;;;35.30;37.00;;;;;;5035280;28;20061;-76
2023/07/18 07:10:41;;;;;;;1.83;1.73;;;35.40;36.20;;;;;;5036322;28;20045;-76
2023/07/18 07:13:12;;;;;;;1.80;1.70;;;35.40;36.20;;;;;;5038792;28;20025;-76
2023/07/18 07:15:38;;;;;;;2.00;1.80;;;35.70;36.30;;;;;;5036541;28;20022;-78
2023/07/18 07:18:04;;;;;;;2.13;2.00;;;35.50;35.70;;;;;;5024282;28;20348;-75
2023/07/18 07:20:34;;;;;;;2.47;1.95;;;;;;;;;;5016481;28;20033;-77
2023/07/18 07:23:00;;;;;;;2.22;2.03;;;31.20;37.80;;;;;;5018709;28;20026;-78
2023/07/18 07:25:30;;;;;;;2.05;1.83;;;29.10;40.90;;;;;;5017014;28;20029;-75
2023/07/18 07:27:56;;;;;;;2.53;2.22;;;27.70;43.20;;;;;;5018097;28;20102;-77
2023/07/18 07:30:22;;;;;;;3.58;2.50;;;26.70;45.00;;;;;;5017988;28;20075;-76
2023/07/18 07:32:53;;;;;;;1.90;1.77;;;26.00;46.10;;;;;;5019380;28;20089;-76
2023/07/18 07:35:20;;;;;;;4.07;2.45;;;25.60;47.10;;;;;;5018948;28;20022;-75
2023/07/18 07:37:50;;;;;;;3.63;2.60;;;25.30;47.70;;;;;;5019331;28;20021;-77
2023/07/18 07:40:17;;;;;;;2.67;2.47;;;25.00;48.30;;;;;;5035963;28;20025;-77
2023/07/18 07:42:45;;;;;;;2.90;2.60;;;24.90;49.00;;;;;;5037001;28;20037;-77
2023/07/18 07:45:12;;;;;;;4.47;2.75;;;24.90;49.30;;;;;;5035911;28;20025;-77
2023/07/18 07:47:38;;;;;;;2.88;2.55;;;24.80;49.50;;;;;;5037607;28;20018;-76
2023/07/18 07:50:05;;;;;;;4.63;3.10;;;24.80;49.80;;;;;;5035388;28;20033;-75
2023/07/18 07:52:31;;;;;;;2.13;1.95;;;24.80;50.20;;;;;;5017018;28;20467;-75
2023/07/18 07:54:57;;;;;;;2.65;2.08;;;24.90;50.20;;;;;;5016402;28;20041;-76
2023/07/18 07:57:23;;;;;;;2.30;2.10;;;25.00;50.20;;;;;;5014306;28;20206;-76
2023/07/18 07:59:50;;;;;;;3.03;2.58;;;25.10;50.10;;;;;;5015452;28;20479;-76
2023/07/18 08:02:20;;;;;;;3.10;2.60;;;25.00;50.10;;;;;;5016365;28;20080;-77
2023/07/18 08:04:47;;;;;;;2.92;2.63;;;25.10;50.50;;;;;;5014288;28;20057;-76
2023/07/18 08:07:13;;;;;;;3.65;2.42;;;25.20;50.70;;;;;;5019159;28;20053;-77
2023/07/18 08:09:39;;;;;;;5.05;3.38;;;25.30;50.50;;;;;;5016432;28;20065;-77
2023/07/18 08:12:05;;;;;;;2.63;2.42;;;25.20;50.70;;;;;;5031138;28;20258;-76
2023/07/18 08:14:32;;;;;;;4.10;2.95;;;25.20;51.00;;;;;;5036584;28;20025;-77
2023/07/18 08:16:58;;;;;;;2.60;2.40;;;25.10;51.00;;;;;;5037324;28;20026;-78
2023/07/18 08:19:23;;;;;;;2.60;2.40;;;25.20;51.80;;;;;;5031963;28;20396;-77
2023/07/18 08:21:49;;;;;;;3.95;2.97;;;25.30;51.10;;;;;;5017364;28;20018;-76
2023/07/18 08:24:15;;;;;;;5.45;3.20;;;25.30;50.70;;;;;;5017218;28;20396;-76
2023/07/18 08:26:41;;;;;;;3.78;3.40;;;25.30;50.60;;;;;;5018558;28;20076;-77
2023/07/18 08:29:06;;;;;;;2.63;2.42;;;25.30;50.90;;;;;;5018334;28;20034;-76
2023/07/18 08:31:32;;;;;;;3.40;2.97;;;25.50;51.10;;;;;;5039364;28;20030;-77
2023/07/18 08:33:58;;;;;;;3.08;2.80;;;25.60;51.00;;;;;;5038050;28;20470;-77
2023/07/18 08:36:25;;;;;;;2.80;2.40;;;25.90;50.90;;;;;;5037415;28;20022;-78
2023/07/18 08:38:51;;;;;;;2.60;2.28;;;26.00;50.60;;;;;;5036161;28;20052;-76
2023/07/18 08:41:20;;;;;;;3.92;2.88;;;26.00;50.20;;;;;;5027983;28;20034;-75
2023/07/18 08:43:46;;;;;;;3.55;2.63;;;26.00;50.00;;;;;;5023364;28;20370;-78
2023/07/18 08:46:13;;;;;;;3.45;2.85;;;26.00;50.10;;;;;;5017472;28;20032;-77
2023/07/18 08:48:47;;;;;;;2.70;2.50;;;26.00;50.60;;;;;;5016208;28;20025;-76
2023/07/18 08:51:14;;;;;;;3.00;2.80;;;26.20;50.80;;;;;;5026390;28;20148;-76
2023/07/18 08:53:43;;;;;;;2.85;2.55;;;26.40;51.30;;;;;;5034525;28;20025;-76
2023/07/18 08:56:08;;;;;;;2.50;2.20;;;26.60;50.50;;;;;;5018785;28;20332;-77
2023/07/18 08:58:37;;;;;;;2.05;1.95;;;26.90;50.40;;;;;;5015998;28;20059;-77
2023/07/18 09:01:08;;;;;;;2.30;2.20;;;27.00;50.30;;;;;;5015155;28;20494;-76
2023/07/18 09:03:33;;;;;;;2.22;2.03;;;27.00;50.00;;;;;;5026174;28;20040;-75
2023/07/18 09:06:03;;;;;;;2.38;2.15;;;27.10;49.70;;;;;;5033245;28;20033;-76
2023/07/18 09:08:42;;;;;;;2.28;2.17;;;27.20;49.80;;;;;;5033879;28;20038;-77
2023/07/18 09:11:07;;;;;;;2.42;2.22;;;27.30;49.90;;;;;;5027702;28;20033;-76
2023/07/18 09:13:41;;;;;;;2.20;2.03;;;27.40;49.60;;;;;;5014576;28;20030;-77
2023/07/18 09:16:17;;;;;;;1.75;1.65;;;27.50;49.30;;;;;;5012532;28;20033;-78
2023/07/18 09:18:47;;;;;;;3.92;2.78;;;27.70;49.20;;;;;;5014179;28;20029;-76
2023/07/18 09:21:12;;;;;;;2.70;2.50;;;27.70;48.90;;;;;;5016875;28;20115;-77
2023/07/18 09:23:43;;;;;;;2.70;2.50;;;27.80;49.00;;;;;;5032741;28;20021;-77
2023/07/18 09:26:12;;;;;;;3.17;2.90;;;27.80;48.80;;;;;;5017047;28;20026;-77
2023/07/18 09:28:41;;;;;;;3.10;2.75;;;27.90;48.80;;;;;;5014115;28;20037;-78
2023/07/18 09:31:19;;;;;;;4.88;3.60;;;28.00;48.60;;;;;;5014600;28;20025;-76
2023/07/18 09:33:47;;;;;;;4.70;3.45;;;27.90;49.00;;;;;;4996305;28;20036;-76
2023/07/18 09:36:24;;;;;;;3.42;3.13;;;27.80;49.40;;;;;;4994661;28;20022;-77
2023/07/18 09:38:50;;;;;;;4.75;3.80;;;27.90;49.70;;;;;;5004479;28;20022;-77
2023/07/18 09:41:17;;;;;;;3.97;3.25;;;27.80;49.90;;;;;;5014812;28;20478;-77
2023/07/18 09:43:44;;;;;;;5.13;3.40;;;27.80;49.90;;;;;;5032176;28;20043;-77
2023/07/18 09:46:15;;;;;;;7.07;3.53;;;27.80;50.20;;;;;;5035005;28;20033;-78
2023/07/18 09:48:42;;;;;;;3.20;2.92;;;27.80;50.80;;;;;;5036096;28;20039;-76
2023/07/18 09:51:10;;;;;;;3.88;3.05;;;28.00;50.70;;;;;;5031558;28;20161;-76
2023/07/18 09:53:43;;;;;;;4.05;3.58;;;28.20;50.50;;;;;;5018897;28;20372;-76
2023/07/18 09:56:10;;;;;;;3.95;3.35;;;28.30;50.50;;;;;;5015021;28;20096;-77
2023/07/18 09:58:41;;;;;;;3.67;3.33;;;28.30;50.50;;;;;;5016418;28;20026;-77
2023/07/18 10:01:12;;;;;;;4.32;3.50;;;28.30;50.60;;;;;;5013530;28;20034;-76
2023/07/18 10:03:39;;;;;;;4.35;3.67;;;28.20;50.70;;;;;;5025484;28;20048;-77
2023/07/18 10:06:11;;;;;;;3.67;3.38;;;28.40;50.90;;;;;;5033010;28;20049;-76
2023/07/18 10:08:39;;;;;;;4.03;3.35;;;28.60;50.80;;;;;;5035969;28;20026;-77
2023/07/18 10:11:09;;;;;;;2.97;2.78;;;28.80;50.30;;;;;;5031812;28;20128;-76
2023/07/18 10:14:02;;;;;;;3.50;3.20;;;29.00;49.90;;;;;;5024831;28;20367;-77
2023/07/18 10:16:28;;;;;;;3.00;2.80;;;29.10;49.70;;;;;;5011400;28;20017;-78
2023/07/18 10:18:54;;;;;;;2.97;2.78;;;29.30;49.50;;;;;;5013434;28;20088;-77
2023/07/18 10:21:32;;;;;;;3.05;2.85;;;29.40;49.30;;;;;;5012754;28;20053;-77
2023/07/18 10:24:19;;;;;;;3.28;3.00;;;29.50;49.20;;;;;;5022562;28;20022;-76
2023/07/18 10:27:00;;;;;;;3.15;2.85;;;29.60;49.00;;;;;;5008962;28;20042;-76
2023/07/18 10:29:37;;;;;;;3.08;2.88;;;29.80;48.80;;;;;;5012879;28;20076;-76
2023/07/18 10:32:04;;;;;;;3.17;2.97;;;30.00;48.50;;;;;;5012653;28;20091;-76
2023/07/18 10:34:38;;;;;;;3.00;2.78;;;30.10;48.40;;;;;;5022284;28;20367;-76
2023/07/18 10:37:07;;;;;;;3.25;2.95;;;30.20;48.50;;;;;;5032073;28;20025;-77
2023/07/18 10:39:38;;;;;;;4.47;3.90;;;30.30;48.20;;;;;;5031745;28;20028;-77
2023/07/18 10:42:06;;;;;;;3.75;3.45;;;30.10;48.10;;;;;;5034023;28;20112;-77
2023/07/18 10:44:33;;;;;;;3.80;3.50;;;29.90;48.40;;;;;;5026160;28;20117;-75
2023/07/18 10:46:59;;;;;;;3.95;3.15;;;29.90;48.60;;;;;;5031040;28;20033;-76
2023/07/18 10:49:25;;;;;;;3.80;3.50;;;30.10;48.50;;;;;;5035463;28;20030;-78
2023/07/18 10:51:54;;;;;;;3.85;3.50;;;;;;;;;;5037549;28;20025;-77
2023/07/18 10:54:20;;;;;;;3.45;3.15;;;30.40;47.40;;;;;;5031956;28;20026;-77
2023/07/18 10:56:48;;;;;;;4.80;3.90;;;30.60;48.10;;;;;;5016257;28;20034;-78
2023/07/18 10:59:14;;;;;;;5.72;3.80;;;30.50;47.70;;;;;;5016045;28;20057;-77
2023/07/18 11:01:40;;;;;;;4.10;3.63;;;30.30;47.70;;;;;;5016686;28;20050;-77
2023/07/18 11:04:07;;;;;;;3.95;3.60;;;30.10;48.80;;;;;;5016139;28;20072;-78
2023/07/18 11:06:34;;;;;;;3.80;3.50;;;30.20;48.00;;;;;;5037988;28;20467;-78
2023/07/18 11:09:00;;;;;;;3.42;3.22;;;30.50;48.00;;;;;;5036109;28;20026;-76
2023/07/18 11:11:25;;;;;;;3.90;3.60;;;30.80;48.40;;;;;;5036507;28;20437;-76
2023/07/18 11:13:51;;;;;;;5.15;4.65;;;30.90;47.50;;;;;;5035467;28;20033;-77
2023/07/18 11:16:17;;;;;;;4.65;4.05;;;30.80;47.40;;;;;;5021823;28;20052;-77
2023/07/18 11:18:48;;;;;;;5.82;3.90;;;30.80;48.00;;;;;;5014990;28;20387;-77
2023/07/18 11:21:17;;;;;;;4.15;3.80;;;30.80;47.70;;;;;;5018696;28;20072;-77
2023/07/18 11:23:44;;;;;;;4.72;4.28;;;30.90;48.10;;;;;;5020150;28;20026;-77
2023/07/18 11:26:14;;;;;;;3.50;3.20;;;31.20;47.80;;;;;;5014635;28;20038;-78
2023/07/18 11:28:41;;;;;;;5.05;3.88;;;31.50;47.20;;;;;;5015929;28;20483;-76
2023/07/18 11:31:25;;;;;;;4.20;3.88;;;31.50;46.70;;;;;;5016386;28;20081;-78
2023/07/18 11:33:53;;;;;;;5.72;4.25;;;31.60;46.50;;;;;;5016220;28;20026;-75
2023/07/18 11:36:21;;;;;;;4.55;4.15;;;31.20;46.70;;;;;;5023132;28;20060;-78
2023/07/18 11:38:49;;;;;;;3.70;3.40;;;30.80;47.20;;;;;;5035974;28;20021;-76
2023/07/18 11:41:34;;;;;;;4.07;3.47;;;30.60;47.60;;;;;;5033792;28;20117;-77
2023/07/18 11:44:04;;;;;;;5.05;4.07;;;30.50;47.40;;;;;;5035709;28;20440;-77
2023/07/18 11:46:56;;;;;;;3.85;3.40;;;30.60;47.50;;;;;;5037246;28;20021;-76
2023/07/18 11:49:35;;;;;;;4.65;4.20;;;30.70;47.00;;;;;;5033723;28;20041;-76
2023/07/18 11:52:05;;;;;;;4.45;4.05;;;30.60;47.40;;;;;;5036343;28;20379;-78
2023/07/18 11:54:36;;;;;;;4.20;3.80;;;30.50;47.40;;;;;;5031787;28;20022;-76
2023/07/18 11:57:03;;;;;;;4.03;3.72;;;30.40;47.30;;;;;;5014637;28;20030;-77
2023/07/18 11:59:30;;;;;;;4.05;3.75;;;30.20;47.60;;;;;;5020063;28;20057;-76
2023/07/18 12:01:55;;;;;;;3.90;3.60;;;30.00;47.90;;;;;;5018294;28;20097;-76
2023/07/18 12:04:21;;;;;;;3.72;3.42;;;29.80;48.30;;;;;;5015880;28;20053;-77
2023/07/18 12:06:47;;;;;;;4.30;3.90;;;29.60;48.70;;;;;;5018391;28;20033;-77
2023/07/18 12:09:13;;;;;;;4.18;3.78;;;29.40;49.10;;;;;;5028783;28;20061;-76
2023/07/18 12:11:39;;;;;;;3.58;3.20;;;29.40;49.40;;;;;;5015290;28;20487;-78
2023/07/18 12:14:06;;;;;;;4.22;3.85;;;29.50;49.70;;;;;;5015267;28;20040;-78
2023/07/18 12:16:32;;;;;;;4.70;3.72;;;29.90;48.90;;;;;;5016581;28;20018;-77
2023/07/18 12:18:58;;;;;;;5.75;4.18;;;30.50;48.00;;;;;;5034216;28;20036;-77
2023/07/18 12:21:23;;;;;;;3.78;3.47;;;30.70;47.20;;;;;;5033173;28;20028;-77
2023/07/18 12:23:52;;;;;;;3.58;3.28;;;30.40;47.80;;;;;;5038208;28;20029;-78
2023/07/18 12:26:17;;;;;;;4.95;4.03;;;30.10;48.20;;;;;;5016663;28;20057;-78
2023/07/18 12:28:44;;;;;;;4.30;3.80;;;29.70;48.10;;;;;;5028880;28;20033;-78
2023/07/18 12:31:11;;;;;;;4.35;3.92;;;29.20;48.80;;;;;;5036652;28;20091;-78
2023/07/18 12:33:38;;;;;;;5.43;4.47;;;28.90;49.70;;;;;;5038201;28;20254;-77
2023/07/18 12:36:04;;;;;;;6.32;4.45;;;28.60;51.50;;;;;;5017371;28;20061;-76
2023/07/18 12:38:30;;;;;;;4.65;4.13;;;28.40;53.20;;;;;;5034383;28;20040;-76
2023/07/18 12:40:56;;;;;;;7.72;4.45;;;28.20;53.90;;;;;;5036494;28;20014;-76
2023/07/18 12:43:22;;;;;;;5.25;4.53;;;28.00;53.80;;;;;;5035591;28;20029;-76
2023/07/18 12:45:48;;;;;;;5.38;3.92;;;27.90;54.40;;;;;;5021036;28;20033;-78
2023/07/18 12:48:13;;;;;;;4.90;4.05;;;27.80;55.00;;;;;;5014602;28;20049;-77